createdAt,value
2018-12-16T00:00:41.984Z,20.83
2018-12-16T00:03:49.367Z,20.97
2018-12-16T00:06:56.681Z,17.52
2018-12-16T00:10:02.687Z,19.40
2018-12-16T00:13:10.879Z,17.92
2018-12-16T00:16:16.782Z,19.15
2018-12-16T00:19:22.695Z,20.55
2018-12-16T00:22:29.925Z,19.48
2018-12-16T00:25:36.663Z,17.87
2018-12-16T00:28:42.612Z,18.15
2018-12-16T00:31:48.965Z,20.03
2018-12-16T00:34:54.930Z,23.00
2018-12-16T00:38:00.840Z,18.55
2018-12-16T00:41:06.768Z,19.92
2018-12-16T00:44:13.077Z,17.77
2018-12-16T00:47:19.006Z,16.57
2018-12-16T00:50:24.895Z,16.32
2018-12-16T00:53:30.926Z,14.98
2018-12-16T00:56:38.334Z,19.52
2018-12-16T00:59:44.358Z,16.25
2018-12-16T01:02:49.985Z,17.87
2018-12-16T01:05:55.616Z,14.20
2018-12-16T01:09:01.223Z,16.93
2018-12-16T01:12:08.895Z,17.00
2018-12-16T01:15:14.903Z,17.87
2018-12-16T01:18:20.609Z,18.82
2018-12-16T01:21:26.920Z,18.53
2018-12-16T01:24:32.847Z,17.95
2018-12-16T01:27:38.737Z,18.27
2018-12-16T01:30:44.904Z,15.40
2018-12-16T01:33:50.806Z,19.00
2018-12-16T01:36:57.316Z,15.80
2018-12-16T01:40:03.452Z,17.10
2018-12-16T01:43:09.374Z,17.73
2018-12-16T01:46:15.592Z,17.65
2018-12-16T01:49:21.229Z,17.70
2018-12-16T01:52:27.306Z,18.10
2018-12-16T01:55:33.231Z,17.10
2018-12-16T01:58:39.255Z,16.70
2018-12-16T02:01:50.642Z,16.25
2018-12-16T02:04:56.407Z,18.17
2018-12-16T02:08:02.882Z,14.75
2018-12-16T02:11:08.800Z,15.35
2018-12-16T02:14:14.730Z,17.35
2018-12-16T02:17:20.603Z,17.07
2018-12-16T02:20:26.548Z,15.50
2018-12-16T02:23:32.146Z,13.80
2018-12-16T02:26:37.812Z,12.60
2018-12-16T02:29:43.741Z,13.83
2018-12-16T02:32:49.378Z,15.98
2018-12-16T02:35:55.184Z,13.10
2018-12-16T02:39:00.872Z,13.93
2018-12-16T02:42:07.544Z,14.80
2018-12-16T02:45:13.383Z,14.73
2018-12-16T02:48:19.660Z,16.00
2018-12-16T02:51:26.849Z,16.85
2018-12-16T02:54:34.225Z,14.80
2018-12-16T02:57:40.238Z,12.70
2018-12-16T03:00:46.445Z,12.10
2018-12-16T03:03:52.467Z,13.03
2018-12-16T03:06:58.337Z,13.40
2018-12-16T03:10:05.678Z,13.65
2018-12-16T03:13:11.951Z,12.47
2018-12-16T03:16:18.626Z,14.18
2018-12-16T03:19:24.274Z,14.35
2018-12-16T03:22:30.271Z,11.95
2018-12-16T03:25:36.505Z,11.70
2018-12-16T03:28:42.450Z,13.98
2018-12-16T03:31:48.221Z,14.45
2018-12-16T03:34:53.887Z,12.60
2018-12-16T03:37:59.514Z,14.35
2018-12-16T03:41:05.896Z,14.47
2018-12-16T03:44:11.770Z,15.95
2018-12-16T03:47:17.818Z,14.38
2018-12-16T03:50:23.768Z,13.95
2018-12-16T03:53:29.394Z,14.30
2018-12-16T03:56:34.969Z,14.00
2018-12-16T03:59:40.612Z,14.55
2018-12-16T04:02:46.706Z,15.25
2018-12-16T04:05:52.673Z,12.93
2018-12-16T04:08:58.601Z,13.65
2018-12-16T04:12:05.190Z,13.85
2018-12-16T04:15:11.972Z,13.45
2018-12-16T04:18:17.881Z,14.43
2018-12-16T04:21:23.757Z,14.18
2018-12-16T04:24:29.426Z,12.88
2018-12-16T04:27:35.316Z,14.00
2018-12-16T04:30:41.631Z,13.80
2018-12-16T04:33:47.891Z,15.30
2018-12-16T04:36:53.515Z,14.37
2018-12-16T04:39:59.126Z,14.50
2018-12-16T04:43:04.793Z,14.45
2018-12-16T04:46:10.663Z,13.40
2018-12-16T04:49:16.313Z,13.88
2018-12-16T04:52:22.177Z,12.73
2018-12-16T04:55:27.825Z,13.72
2018-12-16T04:58:33.865Z,13.32
2018-12-16T05:01:39.802Z,13.03
2018-12-16T05:04:46.041Z,15.32
2018-12-16T05:07:51.938Z,14.37
2018-12-16T05:10:57.846Z,13.55
2018-12-16T05:14:03.967Z,14.23
2018-12-16T05:17:09.564Z,14.00
2018-12-16T05:20:15.521Z,16.23
2018-12-16T05:23:21.107Z,13.83
2018-12-16T05:26:26.753Z,15.35
2018-12-16T05:29:32.696Z,15.15
2018-12-16T05:32:38.627Z,11.30
2018-12-16T05:35:44.783Z,14.53
2018-12-16T05:38:50.724Z,15.35
2018-12-16T05:41:56.583Z,13.48
2018-12-16T05:45:02.513Z,10.40
2018-12-16T05:48:08.757Z,14.25
2018-12-16T05:51:14.672Z,12.47
2018-12-16T05:54:20.606Z,12.90
2018-12-16T05:57:26.377Z,11.70
2018-12-16T06:00:32.434Z,11.10
2018-12-16T06:03:38.458Z,11.53
2018-12-16T06:06:44.159Z,14.00
2018-12-16T06:09:49.785Z,11.75
2018-12-16T06:12:55.657Z,15.45
2018-12-16T06:16:01.586Z,13.70
2018-12-16T06:19:07.292Z,12.10
2018-12-16T06:22:12.894Z,13.43
2018-12-16T06:25:18.514Z,11.80
2018-12-16T06:28:24.148Z,12.75
2018-12-16T06:31:29.756Z,11.83
2018-12-16T06:34:35.676Z,12.43
2018-12-16T06:37:41.574Z,13.00
2018-12-16T06:40:47.759Z,11.37
2018-12-16T06:43:53.659Z,13.68
2018-12-16T06:46:59.309Z,11.28
2018-12-16T06:50:06.955Z,13.68
2018-12-16T06:53:12.883Z,13.55
2018-12-16T06:56:19.113Z,13.50
2018-12-16T06:59:25.024Z,13.98
2018-12-16T07:02:30.979Z,13.53
2018-12-16T07:05:36.900Z,15.50
2018-12-16T07:08:43.048Z,12.50
2018-12-16T07:11:49.611Z,14.35
2018-12-16T07:14:55.656Z,14.38
2018-12-16T07:18:04.295Z,15.43
2018-12-16T07:21:12.018Z,12.50
2018-12-16T07:24:17.837Z,12.85
2018-12-16T07:27:24.085Z,14.58
2018-12-16T07:30:30.044Z,16.00
2018-12-16T07:33:35.942Z,14.17
2018-12-16T07:36:41.893Z,13.97
2018-12-16T07:39:47.855Z,14.68
2018-12-16T07:42:53.810Z,14.45
2018-12-16T07:45:59.875Z,13.88
2018-12-16T07:49:06.318Z,13.03
2018-12-16T07:52:11.959Z,15.60
2018-12-16T07:55:18.651Z,14.47
2018-12-16T07:58:25.045Z,14.07
2018-12-16T08:01:30.939Z,13.48
2018-12-16T08:04:36.829Z,14.15
2018-12-16T08:07:42.566Z,15.70
2018-12-16T08:10:49.168Z,14.18
2018-12-16T08:13:55.316Z,14.00
2018-12-16T08:19:06.848Z,13.60
2018-12-16T08:22:08.834Z,13.43
2018-12-16T08:25:14.917Z,11.93
2018-12-16T08:28:20.853Z,12.68
2018-12-16T08:31:26.900Z,13.90
2018-12-16T08:34:34.095Z,13.83
2018-12-16T08:37:40.245Z,14.10
2018-12-16T08:40:46.422Z,13.80
2018-12-16T08:43:52.373Z,13.40
2018-12-16T08:46:58.247Z,14.58
2018-12-16T08:50:05.621Z,13.28
2018-12-16T08:53:13.179Z,14.10
2018-12-16T08:56:19.218Z,15.90
2018-12-16T08:59:25.489Z,12.40
2018-12-16T09:02:31.450Z,15.08
2018-12-16T09:05:37.665Z,14.85
2018-12-16T09:08:44.379Z,15.35
2018-12-16T09:11:50.036Z,13.87
2018-12-16T09:14:55.676Z,11.30
2018-12-16T09:18:01.575Z,13.83
2018-12-16T09:21:07.417Z,13.33
2018-12-16T09:24:13.713Z,14.03
2018-12-16T09:27:19.344Z,13.45
2018-12-16T09:30:25.038Z,12.60
2018-12-16T09:33:30.724Z,13.28
2018-12-16T09:36:36.439Z,15.98
2018-12-16T09:39:42.080Z,15.60
2018-12-16T09:42:47.843Z,14.83
2018-12-16T09:45:53.530Z,13.72
2018-12-16T09:48:59.161Z,15.03
2018-12-16T09:52:05.632Z,13.28
2018-12-16T09:55:11.988Z,15.28
2018-12-16T09:58:17.976Z,15.23
2018-12-16T10:01:24.425Z,11.90
2018-12-16T10:04:30.771Z,13.63
2018-12-16T10:07:37.845Z,15.13
2018-12-16T10:10:43.642Z,13.20
2018-12-16T10:13:49.361Z,13.57
2018-12-16T10:16:55.015Z,14.50
2018-12-16T10:20:00.598Z,12.30
2018-12-16T10:23:06.468Z,15.03
2018-12-16T10:26:12.622Z,13.30
2018-12-16T10:29:18.627Z,14.20
2018-12-16T10:32:24.323Z,13.05
2018-12-16T10:35:30.241Z,15.00
2018-12-16T10:38:36.126Z,15.63
2018-12-16T10:41:41.761Z,14.63
2018-12-16T10:44:47.896Z,13.70
2018-12-16T10:47:53.891Z,15.50
2018-12-16T10:51:01.211Z,13.85
2018-12-16T10:54:07.197Z,14.58
2018-12-16T10:57:13.287Z,14.45
2018-12-16T11:00:24.562Z,16.50
2018-12-16T11:03:30.518Z,14.30
2018-12-16T11:06:36.445Z,14.33
2018-12-16T11:09:43.290Z,14.85
2018-12-16T11:12:49.985Z,13.25
2018-12-16T11:15:55.599Z,17.07
2018-12-16T11:19:01.453Z,15.78
2018-12-16T11:22:07.376Z,14.33
2018-12-16T11:25:16.255Z,15.20
2018-12-16T11:28:22.154Z,14.28
2018-12-16T11:31:28.175Z,12.85
2018-12-16T11:34:34.085Z,15.83
2018-12-16T11:37:40.446Z,15.48
2018-12-16T11:40:47.142Z,15.98
2018-12-16T11:43:53.107Z,15.80
2018-12-16T11:46:59.189Z,15.40
2018-12-16T11:50:06.421Z,14.40
2018-12-16T11:53:12.408Z,14.95
2018-12-16T11:56:18.448Z,15.43
2018-12-16T11:59:24.530Z,16.48
2018-12-16T12:02:32.937Z,13.40
2018-12-16T12:05:40.546Z,11.85
2018-12-16T12:08:46.577Z,12.07
2018-12-16T12:11:52.635Z,10.65
2018-12-16T12:14:58.656Z,11.15
2018-12-16T12:18:04.304Z,10.53
2018-12-16T12:21:09.945Z,12.07
2018-12-16T12:24:15.576Z,11.63
2018-12-16T12:27:21.515Z,11.35
2018-12-16T12:30:27.528Z,11.37
2018-12-16T12:33:33.781Z,11.53
2018-12-16T12:36:39.942Z,9.80
2018-12-16T12:39:45.781Z,9.70
2018-12-16T12:42:51.674Z,11.80
2018-12-16T12:45:57.695Z,11.05
2018-12-16T12:49:04.109Z,11.53
2018-12-16T12:52:10.078Z,12.60
2018-12-16T12:55:16.033Z,9.18
2018-12-16T12:58:22.742Z,11.70
2018-12-16T13:01:28.628Z,10.18
2018-12-16T13:04:35.001Z,12.03
2018-12-16T13:07:41.274Z,8.63
2018-12-16T13:10:47.129Z,11.35
2018-12-16T13:13:52.804Z,11.03
2018-12-16T13:16:58.457Z,11.07
2018-12-16T13:20:05.056Z,9.47
2018-12-16T13:23:11.020Z,10.00
2018-12-16T13:26:16.717Z,10.80
2018-12-16T13:29:22.692Z,11.00
2018-12-16T13:32:28.666Z,9.90
2018-12-16T13:35:34.599Z,11.35
2018-12-16T13:38:40.600Z,10.10
2018-12-16T13:41:46.826Z,10.20
2018-12-16T13:44:52.700Z,11.08
2018-12-16T13:47:58.607Z,11.20
2018-12-16T13:51:04.971Z,11.83
2018-12-16T13:54:10.894Z,10.38
2018-12-16T13:57:16.818Z,10.78
2018-12-16T14:00:23.229Z,8.80
2018-12-16T14:03:29.196Z,9.95
2018-12-16T14:06:35.569Z,11.65
2018-12-16T14:09:41.472Z,9.20
2018-12-16T14:12:48.032Z,10.08
2018-12-16T14:15:53.623Z,11.20
2018-12-16T14:18:59.331Z,11.45
2018-12-16T14:22:05.210Z,11.63
2018-12-16T14:25:11.653Z,11.73
2018-12-16T14:28:17.561Z,12.43
2018-12-16T14:31:24.046Z,10.05
2018-12-16T14:34:30.012Z,9.60
2018-12-16T14:37:36.882Z,9.75
2018-12-16T14:40:42.730Z,9.00
2018-12-16T14:43:48.498Z,9.73
2018-12-16T14:46:54.183Z,9.50
2018-12-16T14:50:00.248Z,9.93
2018-12-16T14:53:06.136Z,9.88
2018-12-16T14:56:12.052Z,8.45
2018-12-16T14:59:17.930Z,9.03
2018-12-16T15:02:23.844Z,10.58
2018-12-16T15:05:29.491Z,10.08
2018-12-16T15:08:36.299Z,11.85
2018-12-16T15:11:42.627Z,10.93
2018-12-16T15:14:48.972Z,9.50
2018-12-16T15:17:54.851Z,10.80
2018-12-16T15:21:00.459Z,11.60
2018-12-16T15:24:06.523Z,11.15
2018-12-16T15:27:12.548Z,11.35
2018-12-16T15:30:18.484Z,9.43
2018-12-16T15:33:24.585Z,9.95
2018-12-16T15:36:30.170Z,11.13
2018-12-16T15:39:35.799Z,11.50
2018-12-16T15:42:41.420Z,12.60
2018-12-16T15:45:47.661Z,12.13
2018-12-16T15:48:53.573Z,12.03
2018-12-16T15:51:59.535Z,11.53
2018-12-16T15:55:09.233Z,12.82
2018-12-16T15:58:15.924Z,13.57
2018-12-16T16:01:22.967Z,13.35
2018-12-16T16:04:28.636Z,14.53
2018-12-16T16:07:35.080Z,13.20
2018-12-16T16:10:41.004Z,14.45
2018-12-16T16:13:48.092Z,12.10
2018-12-16T16:16:54.045Z,12.70
2018-12-16T16:19:59.918Z,12.40
2018-12-16T16:23:06.866Z,14.05
2018-12-16T16:26:16.368Z,13.55
2018-12-16T16:29:21.400Z,13.22
2018-12-16T16:32:27.345Z,19.37
2018-12-16T16:35:33.080Z,13.23
2018-12-16T16:38:38.658Z,16.60
2018-12-16T16:41:44.418Z,12.98
2018-12-16T16:44:50.395Z,13.20
2018-12-16T16:47:56.324Z,14.00
2018-12-16T16:51:02.243Z,12.18
2018-12-16T16:54:08.172Z,13.53
2018-12-16T16:57:13.885Z,14.18
2018-12-16T17:00:19.776Z,15.20
2018-12-16T17:03:25.351Z,11.40
2018-12-16T17:06:31.398Z,12.50
2018-12-16T17:09:37.066Z,12.87
2018-12-16T17:12:42.749Z,13.65
2018-12-16T17:15:49.543Z,10.95
2018-12-16T17:18:57.543Z,11.63
2018-12-16T17:22:05.155Z,12.45
2018-12-16T17:25:12.125Z,9.18
2018-12-16T17:28:19.233Z,13.95
2018-12-16T17:31:25.215Z,12.00
2018-12-16T17:34:32.396Z,11.55
2018-12-16T17:37:38.305Z,12.05
2018-12-16T17:40:45.029Z,11.63
2018-12-16T17:43:50.954Z,12.73
2018-12-16T17:46:56.702Z,12.07
2018-12-16T17:50:02.358Z,12.05
2018-12-16T17:53:08.314Z,11.75
2018-12-16T17:56:14.451Z,10.63
2018-12-16T17:59:20.671Z,10.88
2018-12-16T18:02:26.488Z,12.37
2018-12-16T18:05:32.357Z,12.95
2018-12-16T18:08:38.023Z,11.87
2018-12-16T18:11:45.791Z,13.48
2018-12-16T18:14:52.298Z,12.70
2018-12-16T18:18:02.061Z,12.73
2018-12-16T18:21:07.803Z,14.33
2018-12-16T18:24:13.855Z,13.53
2018-12-16T18:27:19.606Z,13.70
2018-12-16T18:30:25.237Z,13.20
2018-12-16T18:33:32.148Z,12.00
2018-12-16T18:36:38.503Z,11.68
2018-12-16T18:39:44.357Z,13.88
2018-12-16T18:42:50.213Z,14.65
2018-12-16T18:45:56.442Z,15.27
2018-12-16T18:49:02.345Z,18.20
2018-12-16T18:52:08.253Z,15.50
2018-12-16T18:55:14.023Z,15.45
2018-12-16T18:58:19.720Z,15.78
2018-12-16T19:01:25.574Z,17.15
2018-12-16T19:04:31.235Z,14.80
2018-12-16T19:07:36.882Z,16.62
2018-12-16T19:10:43.935Z,13.80
2018-12-16T19:13:50.256Z,13.50
2018-12-16T19:16:56.180Z,13.10
2018-12-16T19:20:02.408Z,13.18
2018-12-16T19:23:08.077Z,13.27
2018-12-16T19:26:13.740Z,14.47
2018-12-16T19:29:20.403Z,12.90
2018-12-16T19:32:26.001Z,13.75
2018-12-16T19:35:32.942Z,14.43
2018-12-16T19:38:39.508Z,13.63
2018-12-16T19:41:49.942Z,15.93
2018-12-16T19:44:57.269Z,15.13
2018-12-16T19:48:04.583Z,15.93
2018-12-16T19:51:10.731Z,16.70
2018-12-16T19:54:16.982Z,17.37
2018-12-16T19:57:22.925Z,13.93
2018-12-16T20:00:28.840Z,19.32
2018-12-16T20:03:37.234Z,14.60
2018-12-16T20:06:48.068Z,17.75
2018-12-16T20:09:54.149Z,15.68
2018-12-16T20:13:00.042Z,17.55
2018-12-16T20:16:06.835Z,16.17
2018-12-16T20:19:13.937Z,17.30
2018-12-16T20:22:20.229Z,16.30
2018-12-16T20:25:26.145Z,13.50
2018-12-16T20:28:31.744Z,18.83
2018-12-16T20:31:37.396Z,18.48
2018-12-16T20:34:44.554Z,19.37
2018-12-16T20:37:51.264Z,15.45
2018-12-16T20:40:57.165Z,28.23
2018-12-16T20:44:03.545Z,14.60
2018-12-16T20:47:09.184Z,27.70
2018-12-16T20:50:15.154Z,17.45
2018-12-16T20:53:21.239Z,15.70
2018-12-16T20:56:27.456Z,15.25
2018-12-16T20:59:33.336Z,15.80
2018-12-16T21:02:39.409Z,36.70
2018-12-16T21:05:45.523Z,22.07
2018-12-16T21:08:52.434Z,23.20
2018-12-16T21:12:02.203Z,24.72
2018-12-16T21:15:14.165Z,24.23
2018-12-16T21:18:23.828Z,22.17
2018-12-16T21:21:29.540Z,16.77
2018-12-16T21:24:35.376Z,25.50
2018-12-16T21:27:41.049Z,22.82
2018-12-16T21:30:46.736Z,18.90
2018-12-16T21:33:52.797Z,17.67
2018-12-16T21:36:58.383Z,16.60
2018-12-16T21:40:05.077Z,16.73
2018-12-16T21:43:11.604Z,15.08
2018-12-16T21:46:17.511Z,17.35
2018-12-16T21:49:23.525Z,18.35
2018-12-16T21:52:29.263Z,18.52
2018-12-16T21:55:35.481Z,13.72
2018-12-16T21:58:41.386Z,17.10
2018-12-16T22:01:47.326Z,14.40
2018-12-16T22:04:53.249Z,17.07
2018-12-16T22:07:59.603Z,16.23
2018-12-16T22:11:05.517Z,14.75
2018-12-16T22:14:11.407Z,16.65
2018-12-16T22:17:17.327Z,18.80
2018-12-16T22:20:23.212Z,14.87
2018-12-16T22:23:29.113Z,14.20
2018-12-16T22:26:35.482Z,15.97
2018-12-16T22:29:41.409Z,16.07
2018-12-16T22:32:47.394Z,14.65
2018-12-16T22:35:53.015Z,14.43
2018-12-16T22:38:58.608Z,14.10
2018-12-16T22:42:04.544Z,14.35
2018-12-16T22:48:15.949Z,15.83
2018-12-16T22:51:21.814Z,13.80
2018-12-16T22:54:27.758Z,13.73
2018-12-16T22:57:33.353Z,13.60
2018-12-16T23:00:45.447Z,15.60
2018-12-16T23:03:51.349Z,15.30
2018-12-16T23:06:57.292Z,13.83
2018-12-16T23:10:03.179Z,13.55
2018-12-16T23:13:09.642Z,14.18
2018-12-16T23:16:16.916Z,14.23
2018-12-16T23:19:22.567Z,14.70
2018-12-16T23:22:28.558Z,14.70
2018-12-16T23:25:34.234Z,15.65
2018-12-16T23:28:41.318Z,13.20
2018-12-16T23:34:06.629Z,12.00
2018-12-16T23:37:12.507Z,13.38
2018-12-16T23:40:18.403Z,13.50
2018-12-16T23:43:24.009Z,12.63
2018-12-16T23:46:30.445Z,13.13
2018-12-16T23:49:36.335Z,14.75
2018-12-16T23:52:42.385Z,13.88
2018-12-16T23:55:48.716Z,12.58
2018-12-16T23:58:54.722Z,13.55
